createdAt,value
2017-06-04T00:01:36.542Z,22.00
2017-06-04T00:04:06.311Z,27.33
2017-06-04T00:06:35.726Z,23.43
2017-06-04T00:09:04.785Z,23.35
2017-06-04T00:11:34.196Z,23.07
2017-06-04T00:14:03.649Z,22.17
2017-06-04T00:16:33.090Z,22.70
2017-06-04T00:19:02.820Z,22.02
2017-06-04T00:21:32.635Z,22.45
2017-06-04T00:24:02.104Z,23.77
2017-06-04T00:26:31.794Z,24.20
2017-06-04T00:29:01.247Z,24.20
2017-06-04T00:31:30.964Z,23.87
2017-06-04T00:34:00.395Z,24.23
2017-06-04T00:36:30.087Z,25.30
2017-06-04T00:38:59.546Z,24.37
2017-06-04T00:41:29.772Z,23.90
2017-06-04T00:43:59.939Z,25.60
2017-06-04T00:46:29.423Z,25.30
2017-06-04T00:48:59.902Z,25.25
2017-06-04T00:51:29.623Z,27.10
2017-06-04T00:53:59.438Z,27.10
2017-06-04T00:56:29.141Z,25.60
2017-06-04T00:58:58.845Z,24.35
2017-06-04T01:01:28.539Z,25.52
2017-06-04T01:03:58.225Z,26.45
2017-06-04T01:06:27.929Z,26.95
2017-06-04T01:08:57.650Z,26.77
2017-06-04T01:11:27.351Z,26.80
2017-06-04T01:13:57.808Z,27.40
2017-06-04T01:16:27.514Z,26.60
2017-06-04T01:18:57.013Z,26.95
2017-06-04T01:21:26.728Z,28.87
2017-06-04T01:23:56.427Z,27.83
2017-06-04T01:26:25.887Z,27.43
2017-06-04T01:28:55.632Z,27.65
2017-06-04T01:31:25.326Z,27.25
2017-06-04T01:33:55.068Z,27.20
2017-06-04T01:36:24.760Z,28.08
2017-06-04T01:38:55.268Z,29.45
2017-06-04T01:41:25.635Z,29.52
2017-06-04T01:43:54.987Z,29.87
2017-06-04T01:46:24.672Z,33.10
2017-06-04T01:48:54.099Z,30.30
2017-06-04T01:51:24.534Z,30.08
2017-06-04T01:53:54.244Z,29.60
2017-06-04T01:56:23.670Z,32.10
2017-06-04T01:58:53.973Z,32.25
2017-06-04T02:01:23.657Z,33.33
2017-06-04T02:03:53.372Z,31.23
2017-06-04T02:06:23.071Z,30.35
2017-06-04T02:08:52.508Z,30.87
2017-06-04T02:11:21.931Z,32.63
2017-06-04T02:13:52.395Z,30.20
2017-06-04T02:16:22.116Z,31.00
2017-06-04T02:18:51.807Z,31.08
2017-06-04T02:21:21.513Z,29.92
2017-06-04T02:23:51.249Z,28.90
2017-06-04T02:26:20.988Z,30.52
2017-06-04T02:28:50.671Z,30.73
2017-06-04T02:31:20.376Z,30.33
2017-06-04T02:33:50.063Z,30.02
2017-06-04T02:36:19.768Z,28.95
2017-06-04T02:38:49.280Z,29.17
2017-06-04T02:41:18.986Z,28.17
2017-06-04T02:43:48.786Z,25.02
2017-06-04T02:46:18.496Z,23.20
2017-06-04T02:48:48.180Z,23.62
2017-06-04T02:51:17.615Z,24.00
2017-06-04T02:53:47.304Z,23.00
2017-06-04T02:56:16.740Z,24.97
2017-06-04T02:58:46.424Z,24.05
2017-06-04T03:01:16.159Z,21.95
2017-06-04T03:03:45.567Z,21.87
2017-06-04T03:06:15.272Z,20.27
2017-06-04T03:08:44.701Z,20.17
2017-06-04T03:11:14.375Z,20.90
2017-06-04T03:13:44.088Z,22.62
2017-06-04T03:16:13.783Z,20.42
2017-06-04T03:18:43.223Z,21.93
2017-06-04T03:21:12.950Z,19.90
2017-06-04T03:23:43.451Z,21.25
2017-06-04T03:26:13.152Z,19.62
2017-06-04T03:28:42.589Z,21.00
2017-06-04T03:31:12.318Z,19.75
2017-06-04T03:33:42.793Z,19.98
2017-06-04T03:36:12.210Z,21.03
2017-06-04T03:38:41.911Z,19.30
2017-06-04T03:41:11.599Z,21.77
2017-06-04T03:43:41.312Z,19.80
2017-06-04T03:46:11.006Z,20.70
2017-06-04T03:48:40.720Z,20.80
2017-06-04T03:51:10.432Z,22.00
2017-06-04T03:53:39.863Z,20.80
2017-06-04T03:56:09.282Z,21.63
2017-06-04T03:58:38.699Z,22.00
2017-06-04T04:01:08.888Z,23.13
2017-06-04T04:03:38.324Z,22.47
2017-06-04T04:06:08.046Z,21.80
2017-06-04T04:08:38.546Z,21.58
2017-06-04T04:11:08.255Z,21.83
2017-06-04T04:13:37.665Z,20.27
2017-06-04T04:16:07.087Z,22.17
2017-06-04T04:18:36.775Z,22.33
2017-06-04T04:21:06.209Z,20.73
2017-06-04T04:23:35.635Z,21.70
2017-06-04T04:26:05.084Z,20.30
2017-06-04T04:28:34.519Z,21.87
2017-06-04T04:31:04.708Z,20.90
2017-06-04T04:33:34.448Z,20.17
2017-06-04T04:36:03.889Z,22.77
2017-06-04T04:38:33.602Z,22.27
2017-06-04T04:41:03.012Z,20.93
2017-06-04T04:43:32.459Z,21.90
2017-06-04T04:46:02.627Z,20.77
2017-06-04T04:48:32.348Z,21.42
2017-06-04T04:51:02.031Z,88.32
2017-06-04T04:53:32.507Z,49.80
2017-06-04T04:56:01.932Z,35.80
2017-06-04T04:58:32.123Z,26.27
2017-06-04T05:01:01.548Z,35.83
2017-06-04T05:03:31.829Z,27.40
2017-06-04T05:06:01.243Z,28.00
2017-06-04T05:08:31.450Z,23.50
2017-06-04T05:11:00.864Z,22.70
2017-06-04T05:13:31.066Z,22.57
2017-06-04T05:16:00.484Z,22.07
2017-06-04T05:18:30.708Z,24.57
2017-06-04T05:20:59.928Z,21.90
2017-06-04T05:23:29.936Z,21.50
2017-06-04T05:25:59.964Z,22.30
2017-06-04T05:28:35.699Z,117.93
2017-06-04T05:31:05.874Z,23.67
2017-06-04T05:33:35.310Z,22.70
2017-06-04T05:36:04.719Z,23.00
2017-06-04T05:38:34.128Z,25.43
2017-06-04T05:41:03.557Z,24.33
2017-06-04T05:43:32.987Z,24.20
2017-06-04T05:46:02.437Z,24.63
2017-06-04T05:48:31.870Z,24.80
2017-06-04T05:51:01.310Z,25.43
2017-06-04T05:53:30.726Z,25.97
2017-06-04T05:56:00.158Z,27.53
2017-06-04T05:58:30.360Z,28.60
2017-06-04T06:00:59.799Z,28.83
2017-06-04T06:03:30.009Z,28.70
2017-06-04T06:05:59.439Z,28.30
2017-06-04T06:08:28.855Z,30.63
2017-06-04T06:10:58.288Z,30.53
2017-06-04T06:13:27.713Z,32.00
2017-06-04T06:15:57.139Z,31.20
2017-06-04T06:18:26.579Z,29.70
2017-06-04T06:20:57.053Z,34.40
2017-06-04T06:23:27.028Z,33.73
2017-06-04T06:25:56.468Z,34.80
2017-06-04T06:28:26.169Z,34.08
2017-06-04T06:30:55.587Z,34.03
2017-06-04T06:33:25.303Z,35.88
2017-06-04T06:35:55.507Z,35.87
2017-06-04T06:38:24.744Z,35.70
2017-06-04T06:40:54.167Z,36.77
2017-06-04T06:43:23.258Z,37.37
2017-06-04T06:45:53.540Z,39.55
2017-06-04T06:48:23.783Z,37.20
2017-06-04T06:50:53.501Z,39.63
2017-06-04T06:53:22.938Z,38.50
2017-06-04T06:55:52.350Z,39.50
2017-06-04T06:58:21.820Z,38.93
2017-06-04T07:00:51.257Z,39.43
2017-06-04T07:03:20.671Z,40.87
2017-06-04T07:05:50.143Z,39.63
2017-06-04T07:08:19.571Z,41.20
2017-06-04T07:10:49.004Z,42.00
2017-06-04T07:13:18.413Z,43.40
2017-06-04T07:15:48.617Z,41.70
2017-06-04T07:18:18.031Z,130.73
2017-06-04T07:20:47.485Z,38.17
2017-06-04T07:23:17.470Z,36.53
2017-06-04T07:25:47.704Z,36.63
2017-06-04T07:28:17.133Z,36.80
2017-06-04T07:30:46.559Z,38.93
2017-06-04T07:33:16.127Z,37.47
2017-06-04T07:35:45.558Z,35.33
2017-06-04T07:38:14.965Z,37.20
2017-06-04T07:40:45.840Z,35.50
2017-06-04T07:43:15.247Z,35.63
2017-06-04T07:45:45.443Z,36.97
2017-06-04T07:48:14.856Z,34.37
2017-06-04T07:50:44.286Z,36.50
2017-06-04T07:53:14.471Z,37.50
2017-06-04T07:55:43.992Z,38.43
2017-06-04T07:58:13.403Z,37.73
2017-06-04T08:00:43.112Z,39.22
2017-06-04T08:03:12.535Z,36.63
2017-06-04T08:05:42.019Z,34.20
2017-06-04T08:08:12.020Z,36.07
2017-06-04T08:10:41.453Z,32.20
2017-06-04T08:13:11.643Z,37.67
2017-06-04T08:15:41.060Z,32.20
2017-06-04T08:18:11.488Z,33.43
2017-06-04T08:20:40.889Z,29.03
2017-06-04T08:23:10.320Z,21.43
2017-06-04T08:25:41.417Z,19.13
2017-06-04T08:28:11.195Z,20.23
2017-06-04T08:30:41.687Z,18.77
2017-06-04T08:33:11.900Z,24.70
2017-06-04T08:35:41.307Z,16.80
2017-06-04T08:38:11.092Z,21.40
2017-06-04T08:40:40.774Z,22.92
2017-06-04T08:43:11.834Z,17.67
2017-06-04T08:45:42.411Z,16.83
2017-06-04T08:48:12.115Z,58.03
2017-06-04T08:50:41.840Z,17.60
2017-06-04T08:53:11.255Z,20.17
2017-06-04T08:55:40.691Z,19.50
2017-06-04T08:58:10.110Z,18.67
2017-06-04T09:00:39.559Z,15.70
2017-06-04T09:03:08.976Z,17.90
2017-06-04T09:05:38.459Z,22.13
2017-06-04T09:08:07.875Z,17.27
2017-06-04T09:10:37.304Z,14.87
2017-06-04T09:13:07.507Z,14.90
2017-06-04T09:15:37.218Z,15.07
2017-06-04T09:18:07.207Z,16.80
2017-06-04T09:20:36.920Z,15.93
2017-06-04T09:23:06.606Z,15.30
2017-06-04T09:25:37.088Z,15.52
2017-06-04T09:28:06.828Z,15.30
2017-06-04T09:30:36.535Z,14.02
2017-06-04T09:33:06.257Z,12.75
2017-06-04T09:35:36.707Z,13.13
2017-06-04T09:38:06.410Z,13.95
2017-06-04T09:40:36.119Z,12.77
2017-06-04T09:43:05.964Z,14.27
2017-06-04T09:45:35.707Z,18.02
2017-06-04T09:48:05.415Z,21.00
2017-06-04T09:50:35.116Z,20.12
2017-06-04T09:53:04.932Z,13.62
2017-06-04T09:55:34.641Z,12.93
2017-06-04T09:58:04.348Z,12.10
2017-06-04T10:00:34.036Z,12.02
2017-06-04T10:03:03.773Z,13.82
2017-06-04T10:05:33.484Z,14.75
2017-06-04T10:08:03.190Z,14.30
2017-06-04T10:10:32.998Z,13.00
2017-06-04T10:13:02.724Z,13.30
2017-06-04T10:15:32.437Z,16.27
2017-06-04T10:18:02.138Z,14.90
2017-06-04T10:20:31.847Z,14.35
2017-06-04T10:23:01.555Z,13.98
2017-06-04T10:25:31.265Z,18.80
2017-06-04T10:28:01.081Z,14.25
2017-06-04T10:30:30.767Z,13.93
2017-06-04T10:33:00.472Z,14.73
2017-06-04T10:35:30.179Z,15.57
2017-06-04T10:37:59.905Z,13.13
2017-06-04T10:40:29.617Z,13.13
2017-06-04T10:42:59.463Z,15.40
2017-06-04T10:45:29.171Z,14.25
2017-06-04T10:47:58.864Z,12.60
2017-06-04T10:50:28.589Z,15.18
2017-06-04T10:52:58.309Z,14.32
2017-06-04T10:55:27.991Z,59.78
2017-06-04T10:57:57.692Z,11.80
2017-06-04T11:00:27.388Z,11.68
2017-06-04T11:02:57.087Z,12.30
2017-06-04T11:05:26.783Z,11.07
2017-06-04T11:07:56.236Z,11.23
2017-06-04T11:10:25.951Z,12.63
2017-06-04T11:12:55.363Z,10.80
2017-06-04T11:15:25.063Z,10.75
2017-06-04T11:17:54.760Z,14.10
2017-06-04T11:20:24.481Z,10.45
2017-06-04T11:22:54.292Z,9.70
2017-06-04T11:25:23.967Z,8.75
2017-06-04T11:27:53.652Z,8.40
2017-06-04T11:30:23.106Z,10.37
2017-06-04T11:32:52.509Z,7.73
2017-06-04T11:35:22.230Z,8.70
2017-06-04T11:37:51.928Z,8.70
2017-06-04T11:40:21.601Z,8.15
2017-06-04T11:42:52.062Z,9.60
2017-06-04T11:45:21.828Z,11.57
2017-06-04T11:47:51.527Z,8.85
2017-06-04T11:50:21.199Z,12.27
2017-06-04T11:52:51.060Z,11.15
2017-06-04T11:55:21.524Z,11.30
2017-06-04T11:57:51.293Z,13.55
2017-06-04T12:00:21.026Z,13.73
2017-06-04T12:02:50.540Z,9.88
2017-06-04T12:05:21.007Z,8.85
2017-06-04T12:07:50.667Z,7.80
2017-06-04T12:10:20.396Z,7.32
2017-06-04T12:12:50.073Z,7.20
2017-06-04T12:15:19.846Z,7.85
2017-06-04T12:17:49.544Z,7.00
2017-06-04T12:20:19.218Z,8.20
2017-06-04T12:22:49.684Z,10.40
2017-06-04T12:25:19.372Z,7.32
2017-06-04T12:27:49.094Z,10.13
2017-06-04T12:30:18.800Z,7.00
2017-06-04T12:32:48.494Z,6.53
2017-06-04T12:35:18.968Z,6.85
2017-06-04T12:37:48.438Z,7.32
2017-06-04T12:40:18.132Z,9.73
2017-06-04T12:42:48.580Z,9.90
2017-06-04T12:45:18.273Z,8.60
2017-06-04T12:47:48.717Z,7.37
2017-06-04T12:50:19.199Z,8.05
2017-06-04T12:52:48.984Z,10.45
2017-06-04T12:55:18.680Z,8.30
2017-06-04T12:57:48.364Z,6.20
2017-06-04T13:00:18.850Z,6.90
2017-06-04T13:02:48.541Z,6.37
2017-06-04T13:05:17.980Z,6.33
2017-06-04T13:07:47.711Z,5.78
2017-06-04T13:10:17.144Z,5.60
2017-06-04T13:12:47.530Z,5.40
2017-06-04T13:15:17.894Z,5.83
2017-06-04T13:17:48.065Z,6.03
2017-06-04T13:20:17.488Z,6.43
2017-06-04T13:22:46.941Z,5.90
2017-06-04T13:25:16.656Z,6.68
2017-06-04T13:27:46.409Z,5.47
2017-06-04T13:30:16.136Z,5.80
2017-06-04T13:32:45.882Z,6.10
2017-06-04T13:35:15.580Z,7.32
2017-06-04T13:37:45.326Z,6.40
2017-06-04T13:40:15.021Z,7.20
2017-06-04T13:42:44.724Z,6.57
2017-06-04T13:45:14.547Z,5.87
2017-06-04T13:47:44.240Z,7.28
2017-06-04T13:50:14.072Z,7.80
2017-06-04T13:52:43.813Z,7.10
2017-06-04T13:55:13.302Z,7.63
2017-06-04T13:57:42.706Z,6.80
2017-06-04T14:00:12.134Z,7.77
2017-06-04T14:02:41.536Z,7.07
2017-06-04T14:05:10.963Z,7.37
2017-06-04T14:07:40.371Z,7.20
2017-06-04T14:10:09.805Z,6.73
2017-06-04T14:12:39.210Z,7.20
2017-06-04T14:15:09.389Z,8.37
2017-06-04T14:17:38.803Z,7.50
2017-06-04T14:20:08.523Z,11.98
2017-06-04T14:22:38.683Z,7.37
2017-06-04T14:25:08.108Z,6.87
2017-06-04T14:27:37.503Z,6.87
2017-06-04T14:30:06.929Z,5.93
2017-06-04T14:32:37.166Z,6.67
2017-06-04T14:35:06.566Z,7.00
2017-06-04T14:37:35.980Z,5.93
2017-06-04T14:40:06.151Z,6.90
2017-06-04T14:42:35.598Z,6.60
2017-06-04T14:45:05.070Z,6.93
2017-06-04T14:47:34.557Z,12.50
2017-06-04T14:50:03.955Z,7.70
2017-06-04T14:52:33.383Z,6.00
2017-06-04T14:55:02.790Z,9.10
2017-06-04T14:57:32.217Z,7.03
2017-06-04T15:00:01.635Z,6.67
2017-06-04T15:02:30.865Z,6.67
2017-06-04T15:05:00.306Z,7.43
2017-06-04T15:07:29.532Z,7.67
2017-06-04T15:09:58.930Z,7.13
2017-06-04T15:12:28.332Z,7.30
2017-06-04T15:14:57.833Z,6.97
2017-06-04T15:17:27.350Z,9.00
2017-06-04T15:19:56.850Z,7.70
2017-06-04T15:22:26.317Z,8.73
2017-06-04T15:24:55.710Z,8.80
2017-06-04T15:27:25.110Z,7.57
2017-06-04T15:29:54.561Z,10.07
2017-06-04T15:32:24.280Z,9.88
2017-06-04T15:34:53.751Z,11.37
2017-06-04T15:37:23.507Z,8.95
2017-06-04T15:39:53.051Z,11.20
2017-06-04T15:42:22.517Z,9.23
2017-06-04T15:44:52.720Z,9.53
2017-06-04T15:47:22.125Z,11.30
2017-06-04T15:49:51.538Z,9.23
2017-06-04T15:52:20.997Z,10.50
2017-06-04T15:54:50.397Z,11.43
2017-06-04T15:57:19.791Z,9.80
2017-06-04T15:59:49.271Z,11.33
2017-06-04T16:02:19.449Z,14.30
2017-06-04T16:04:49.213Z,13.35
2017-06-04T16:07:18.683Z,11.27
2017-06-04T16:09:48.360Z,11.65
2017-06-04T16:12:18.055Z,10.10
2017-06-04T16:14:47.491Z,10.53
2017-06-04T16:17:16.941Z,10.10
2017-06-04T16:19:47.490Z,20.48
2017-06-04T16:22:16.964Z,7.90
2017-06-04T16:24:47.183Z,7.93
2017-06-04T16:27:17.424Z,7.40
2017-06-04T16:29:46.860Z,8.70
2017-06-04T16:32:16.343Z,17.57
2017-06-04T16:34:45.811Z,7.27
2017-06-04T16:37:15.239Z,9.60
2017-06-04T16:39:45.439Z,6.43
2017-06-04T16:42:14.893Z,7.53
2017-06-04T16:44:44.295Z,7.20
2017-06-04T16:47:13.728Z,7.83
2017-06-04T16:49:43.454Z,7.03
2017-06-04T16:52:12.889Z,6.07
2017-06-04T16:54:42.303Z,5.03
2017-06-04T16:57:11.718Z,5.67
2017-06-04T16:59:41.157Z,4.20
2017-06-04T17:02:10.564Z,3.93
2017-06-04T17:04:40.029Z,4.80
2017-06-04T17:07:09.459Z,3.70
2017-06-04T17:09:38.872Z,5.77
2017-06-04T17:12:08.609Z,2.90
2017-06-04T17:14:38.820Z,2.93
2017-06-04T17:17:08.230Z,5.37
2017-06-04T17:19:37.643Z,3.67
2017-06-04T17:22:07.946Z,4.13
2017-06-04T17:24:37.343Z,4.70
2017-06-04T17:27:06.757Z,4.13
2017-06-04T17:29:36.188Z,4.37
2017-06-04T17:32:05.606Z,2.50
2017-06-04T17:34:35.028Z,3.67
2017-06-04T17:37:04.453Z,5.30
2017-06-04T17:39:33.856Z,3.80
2017-06-04T17:42:03.555Z,5.50
2017-06-04T17:44:33.088Z,4.43
2017-06-04T17:47:02.533Z,2.60
2017-06-04T17:49:31.949Z,3.03
2017-06-04T17:52:01.401Z,2.87
2017-06-04T17:54:31.076Z,5.70
2017-06-04T17:57:00.500Z,3.73
2017-06-04T17:59:30.184Z,4.03
2017-06-04T18:01:59.593Z,5.07
2017-06-04T18:04:29.356Z,3.53
2017-06-04T18:06:58.782Z,2.60
2017-06-04T18:09:28.192Z,4.00
2017-06-04T18:11:58.659Z,2.10
2017-06-04T18:14:28.357Z,4.72
2017-06-04T18:16:58.791Z,3.97
2017-06-04T18:19:28.222Z,15.73
2017-06-04T18:21:57.469Z,5.10
2017-06-04T18:24:26.733Z,3.43
2017-06-04T18:27:02.481Z,3.57
2017-06-04T18:29:32.481Z,4.60
2017-06-04T18:32:02.193Z,4.30
2017-06-04T18:34:31.874Z,3.70
2017-06-04T18:37:01.309Z,5.07
2017-06-04T18:39:30.747Z,6.83
2017-06-04T18:41:59.819Z,3.47
2017-06-04T18:44:29.517Z,5.22
2017-06-04T18:46:59.208Z,4.53
2017-06-04T18:49:28.899Z,3.92
2017-06-04T18:51:59.364Z,4.78
2017-06-04T18:54:29.043Z,5.95
2017-06-04T18:56:59.521Z,4.68
2017-06-04T18:59:29.179Z,6.28
2017-06-04T19:01:59.658Z,6.37
2017-06-04T19:04:29.328Z,4.40
2017-06-04T19:06:59.016Z,3.97
2017-06-04T19:09:28.690Z,3.95
2017-06-04T19:11:59.070Z,3.47
2017-06-04T19:14:28.743Z,3.78
2017-06-04T19:16:58.449Z,4.10
2017-06-04T19:19:28.144Z,5.40
2017-06-04T19:21:57.845Z,5.25
2017-06-04T19:24:27.557Z,4.62
2017-06-04T19:26:57.254Z,5.00
2017-06-04T19:29:26.935Z,3.33
2017-06-04T19:31:57.404Z,5.12
2017-06-04T19:34:27.084Z,7.25
2017-06-04T19:36:57.540Z,4.25
2017-06-04T19:39:27.248Z,5.70
2017-06-04T19:41:57.052Z,5.40
2017-06-04T19:44:26.742Z,5.40
2017-06-04T19:46:56.869Z,4.60
2017-06-04T19:49:26.558Z,7.28
2017-06-04T19:51:57.001Z,6.93
2017-06-04T19:54:26.695Z,6.35
2017-06-04T19:56:57.140Z,5.20
2017-06-04T19:59:26.844Z,5.00
2017-06-04T20:01:57.291Z,4.82
2017-06-04T20:04:26.981Z,5.15
2017-06-04T20:06:57.472Z,6.12
2017-06-04T20:09:27.171Z,4.85
2017-06-04T20:11:56.867Z,4.78
2017-06-04T20:14:26.576Z,4.62
2017-06-04T20:16:56.258Z,7.37
2017-06-04T20:19:25.961Z,8.35
2017-06-04T20:21:55.635Z,6.82
2017-06-04T20:24:25.328Z,7.35
2017-06-04T20:26:54.999Z,4.78
2017-06-04T20:29:24.704Z,7.65
2017-06-04T20:31:54.376Z,5.45
2017-06-04T20:34:24.841Z,8.55
2017-06-04T20:36:54.539Z,11.95
2017-06-04T20:39:24.250Z,5.15
2017-06-04T20:41:53.939Z,8.38
2017-06-04T20:44:24.410Z,7.55
2017-06-04T20:46:54.089Z,6.55
2017-06-04T20:49:23.776Z,8.90
2017-06-04T20:51:53.468Z,5.70
2017-06-04T20:54:23.165Z,9.38
2017-06-04T20:56:52.848Z,7.53
2017-06-04T20:59:22.532Z,5.45
2017-06-04T21:01:52.234Z,8.27
2017-06-04T21:04:22.671Z,6.53
2017-06-04T21:06:54.380Z,5.12
2017-06-04T21:09:24.055Z,10.75
2017-06-04T21:11:53.764Z,7.60
2017-06-04T21:14:23.465Z,4.72
2017-06-04T21:16:53.168Z,12.20
2017-06-04T21:19:22.889Z,5.43
2017-06-04T21:21:52.591Z,6.18
2017-06-04T21:24:23.035Z,7.25
2017-06-04T21:26:52.734Z,6.90
2017-06-04T21:29:22.680Z,7.90
2017-06-04T21:31:52.967Z,8.90
2017-06-04T21:34:22.668Z,5.03
2017-06-04T21:36:53.123Z,5.55
2017-06-04T21:39:22.819Z,5.68
2017-06-04T21:41:52.523Z,7.55
2017-06-04T21:44:22.977Z,10.05
2017-06-04T21:46:52.664Z,4.57
2017-06-04T21:49:22.376Z,4.65
2017-06-04T21:51:52.808Z,7.00
2017-06-04T21:54:22.535Z,6.97
2017-06-04T21:56:53.057Z,3.58
2017-06-04T21:59:22.759Z,7.78
2017-06-04T22:01:52.434Z,5.47
2017-06-04T22:04:22.889Z,7.45
2017-06-04T22:06:52.579Z,6.18
2017-06-04T22:09:22.287Z,7.93
2017-06-04T22:11:51.952Z,7.18
2017-06-04T22:14:21.642Z,6.53
2017-06-04T22:16:51.330Z,8.10
2017-06-04T22:19:21.052Z,8.15
2017-06-04T22:21:50.719Z,9.93
2017-06-04T22:24:20.413Z,5.43
2017-06-04T22:26:50.092Z,7.28
2017-06-04T22:29:19.804Z,5.78
2017-06-04T22:31:49.503Z,7.75
2017-06-04T22:34:19.157Z,9.07
2017-06-04T22:36:48.840Z,9.20
2017-06-04T22:39:18.506Z,8.07
2017-06-04T22:41:48.200Z,7.20
2017-06-04T22:44:18.640Z,8.77
2017-06-04T22:46:48.326Z,8.52
2017-06-04T22:49:17.996Z,11.77
2017-06-04T22:51:47.690Z,7.80
2017-06-04T22:54:17.370Z,12.02
2017-06-04T22:56:47.828Z,7.00
2017-06-04T22:59:17.486Z,5.10
2017-06-04T23:01:47.178Z,6.12
2017-06-04T23:04:16.836Z,8.18
2017-06-04T23:06:46.529Z,7.87
2017-06-04T23:09:16.991Z,5.93
2017-06-04T23:11:46.702Z,8.82
2017-06-04T23:14:16.393Z,6.20
2017-06-04T23:16:46.084Z,10.50
2017-06-04T23:19:16.528Z,7.40
2017-06-04T23:21:46.992Z,9.77
2017-06-04T23:24:16.670Z,8.27
2017-06-04T23:26:47.155Z,7.40
2017-06-04T23:29:16.836Z,11.20
2017-06-04T23:31:46.549Z,9.52
2017-06-04T23:34:16.274Z,8.85
2017-06-04T23:36:45.939Z,9.25
2017-06-04T23:39:16.401Z,7.97
2017-06-04T23:41:46.065Z,7.62
2017-06-04T23:44:16.516Z,8.65
2017-06-04T23:46:46.196Z,9.07
2017-06-04T23:49:16.648Z,8.02
2017-06-04T23:51:46.305Z,8.32
2017-06-04T23:54:15.998Z,10.52
2017-06-04T23:56:45.646Z,7.22
2017-06-04T23:59:16.117Z,8.90
